createdAt,value
2023-02-16T00:01:16.493Z,8.60
2023-02-16T00:03:44.235Z,8.63
2023-02-16T00:06:14.340Z,8.75
2023-02-16T00:08:41.765Z,8.40
2023-02-16T00:11:34.454Z,8.70
2023-02-16T00:14:02.169Z,8.10
2023-02-16T00:16:29.655Z,8.90
2023-02-16T00:18:57.048Z,8.23
2023-02-16T00:21:24.428Z,8.80
2023-02-16T00:23:52.087Z,8.90
2023-02-16T00:26:21.798Z,8.07
2023-02-16T00:28:50.389Z,8.63
2023-02-16T00:31:19.403Z,8.07
2023-02-16T00:33:47.163Z,7.63
2023-02-16T00:36:14.572Z,8.63
2023-02-16T00:38:41.957Z,8.75
2023-02-16T00:41:35.497Z,8.43
2023-02-16T00:44:04.227Z,8.50
2023-02-16T00:46:31.711Z,8.27
2023-02-16T00:48:59.136Z,7.70
2023-02-16T00:51:26.938Z,8.20
2023-02-16T00:53:54.517Z,8.90
2023-02-16T00:56:22.294Z,8.75
2023-02-16T00:58:50.949Z,8.35
2023-02-16T01:01:19.683Z,8.43
2023-02-16T01:03:47.074Z,8.43
2023-02-16T01:06:40.183Z,8.20
2023-02-16T01:09:31.139Z,8.45
2023-02-16T01:11:58.554Z,8.27
2023-02-16T01:14:26.194Z,8.00
2023-02-16T01:16:54.921Z,8.02
2023-02-16T01:19:22.341Z,8.10
2023-02-16T01:21:49.724Z,7.63
2023-02-16T01:24:17.154Z,8.38
2023-02-16T01:26:45.663Z,8.07
2023-02-16T01:29:14.346Z,8.20
2023-02-16T01:31:41.850Z,8.52
2023-02-16T01:34:10.665Z,8.27
2023-02-16T01:36:38.968Z,7.72
2023-02-16T01:39:06.502Z,8.30
2023-02-16T01:41:47.110Z,9.00
2023-02-16T01:44:16.002Z,8.43
2023-02-16T01:46:45.200Z,8.98
2023-02-16T01:49:14.287Z,8.70
2023-02-16T01:51:47.295Z,8.10
2023-02-16T01:54:17.482Z,8.13
2023-02-16T01:59:17.629Z,8.02
2023-02-16T02:01:46.793Z,8.13
2023-02-16T02:04:42.306Z,8.13
2023-02-16T02:07:11.090Z,7.95
2023-02-16T02:09:40.117Z,8.85
2023-02-16T02:12:12.798Z,8.57
2023-02-16T02:14:40.573Z,8.60
2023-02-16T02:17:09.570Z,8.25
2023-02-16T02:19:48.949Z,8.93
2023-02-16T02:22:45.488Z,8.27
2023-02-16T02:25:41.589Z,8.23
2023-02-16T02:28:11.135Z,8.70
2023-02-16T02:30:44.426Z,8.98
2023-02-16T02:33:33.831Z,8.57
2023-02-16T02:36:09.455Z,9.35
2023-02-16T02:38:39.553Z,7.95
2023-02-16T02:43:38.627Z,8.60
2023-02-16T02:46:08.051Z,8.10
2023-02-16T02:48:35.594Z,8.13
2023-02-16T02:51:21.370Z,8.52
2023-02-16T02:54:11.276Z,8.70
2023-02-16T02:56:56.017Z,7.82
2023-02-16T02:59:42.580Z,8.18
2023-02-16T03:02:09.985Z,8.40
2023-02-16T03:04:37.374Z,8.95
2023-02-16T03:07:04.751Z,8.50
2023-02-16T03:09:32.138Z,8.98
2023-02-16T03:12:17.382Z,7.90
2023-02-16T03:14:47.610Z,8.07
2023-02-16T03:20:18.230Z,8.00
2023-02-16T03:23:03.462Z,8.60
2023-02-16T03:25:50.212Z,8.60
2023-02-16T03:28:35.476Z,9.48
2023-02-16T03:31:04.544Z,9.07
2023-02-16T03:33:32.051Z,8.73
2023-02-16T03:35:59.470Z,9.63
2023-02-16T03:38:26.860Z,8.43
2023-02-16T03:40:54.241Z,8.43
2023-02-16T03:43:22.504Z,8.77
2023-02-16T03:45:49.928Z,8.57
2023-02-16T03:48:18.635Z,9.63
2023-02-16T03:50:46.030Z,10.10
2023-02-16T03:53:13.497Z,9.35
2023-02-16T03:55:41.721Z,9.18
2023-02-16T03:58:10.072Z,9.95
2023-02-16T04:00:37.564Z,9.93
2023-02-16T04:03:05.035Z,9.65
2023-02-16T04:05:33.843Z,9.95
2023-02-16T04:08:01.261Z,10.18
2023-02-16T04:10:28.722Z,9.23
2023-02-16T04:12:55.176Z,10.13
2023-02-16T04:15:23.964Z,10.40
2023-02-16T04:17:51.332Z,10.23
2023-02-16T04:20:19.710Z,10.57
2023-02-16T04:22:48.603Z,9.68
2023-02-16T04:25:15.999Z,9.52
2023-02-16T04:27:43.584Z,10.65
2023-02-16T04:30:12.755Z,10.95
2023-02-16T04:32:40.173Z,10.68
2023-02-16T04:35:07.840Z,11.32
2023-02-16T04:37:35.253Z,10.00
2023-02-16T04:40:04.352Z,10.98
2023-02-16T04:42:31.763Z,10.57
2023-02-16T04:44:59.167Z,10.60
2023-02-16T04:47:26.655Z,11.13
2023-02-16T04:49:54.255Z,10.45
2023-02-16T04:52:21.622Z,10.73
2023-02-16T04:54:49.084Z,10.35
2023-02-16T04:57:19.125Z,10.68
2023-02-16T04:59:46.529Z,10.68
2023-02-16T05:02:13.899Z,10.57
2023-02-16T05:04:41.989Z,11.18
2023-02-16T05:07:09.443Z,10.73
2023-02-16T05:09:36.827Z,10.82
2023-02-16T05:12:21.812Z,11.27
2023-02-16T05:14:50.718Z,10.90
2023-02-16T05:17:19.221Z,11.30
2023-02-16T05:19:47.257Z,10.55
2023-02-16T05:22:14.926Z,10.45
2023-02-16T05:24:42.328Z,11.10
2023-02-16T05:27:10.614Z,11.65
2023-02-16T05:29:37.991Z,11.05
2023-02-16T05:32:06.751Z,10.57
2023-02-16T05:34:34.155Z,10.60
2023-02-16T05:37:01.526Z,11.13
2023-02-16T05:39:29.045Z,11.23
2023-02-16T05:41:56.434Z,11.15
2023-02-16T05:44:24.030Z,10.48
2023-02-16T05:46:51.476Z,10.25
2023-02-16T05:49:20.171Z,10.02
2023-02-16T05:51:47.565Z,10.80
2023-02-16T05:54:17.804Z,10.88
2023-02-16T05:56:45.970Z,10.05
2023-02-16T05:59:13.439Z,10.85
2023-02-16T06:01:41.446Z,10.52
2023-02-16T06:04:09.340Z,10.18
2023-02-16T06:06:38.272Z,10.45
2023-02-16T06:09:05.942Z,9.88
2023-02-16T06:11:39.062Z,10.75
2023-02-16T06:14:07.753Z,10.88
2023-02-16T06:16:37.292Z,10.75
2023-02-16T06:19:04.740Z,10.80
2023-02-16T06:21:32.256Z,10.32
2023-02-16T06:24:01.138Z,10.13
2023-02-16T06:26:28.736Z,10.05
2023-02-16T06:28:56.114Z,9.88
2023-02-16T06:31:23.614Z,9.80
2023-02-16T06:33:51.053Z,10.07
2023-02-16T06:36:18.556Z,10.38
2023-02-16T06:38:45.958Z,9.85
2023-02-16T06:41:30.897Z,13.63
2023-02-16T06:43:59.376Z,13.52
2023-02-16T06:46:26.792Z,13.30
2023-02-16T06:48:54.210Z,12.35
2023-02-16T06:51:21.608Z,13.73
2023-02-16T06:53:49.190Z,12.63
2023-02-16T06:56:17.859Z,11.63
2023-02-16T06:58:45.267Z,12.70
2023-02-16T07:01:12.750Z,12.98
2023-02-16T07:03:40.248Z,13.40
2023-02-16T07:06:07.870Z,12.85
2023-02-16T07:08:35.960Z,12.52
2023-02-16T07:11:03.598Z,12.68
2023-02-16T07:13:36.296Z,13.18
2023-02-16T07:16:04.321Z,12.73
2023-02-16T07:18:31.782Z,12.43
2023-02-16T07:20:59.164Z,12.95
2023-02-16T07:23:26.564Z,13.75
2023-02-16T07:25:54.094Z,13.68
2023-02-16T07:28:21.481Z,12.13
2023-02-16T07:30:50.715Z,13.10
2023-02-16T07:33:18.606Z,12.23
2023-02-16T07:38:05.142Z,12.00
2023-02-16T07:40:32.599Z,12.32
2023-02-16T07:43:00.288Z,12.80
2023-02-16T07:45:27.746Z,12.25
2023-02-16T07:47:56.468Z,12.32
2023-02-16T07:50:23.868Z,12.40
2023-02-16T07:52:51.253Z,12.00
2023-02-16T07:55:18.863Z,12.20
2023-02-16T07:57:49.210Z,13.02
2023-02-16T08:00:17.368Z,13.25
2023-02-16T08:02:44.861Z,13.00
2023-02-16T08:05:13.589Z,16.98
2023-02-16T08:07:41.726Z,13.68
2023-02-16T08:10:09.738Z,13.63
2023-02-16T08:12:37.698Z,13.80
2023-02-16T08:15:05.353Z,14.75
2023-02-16T08:17:32.737Z,13.52
2023-02-16T08:20:00.160Z,15.98
2023-02-16T08:22:29.317Z,16.08
2023-02-16T08:24:56.742Z,16.45
2023-02-16T08:27:24.728Z,15.98
2023-02-16T08:29:52.226Z,15.05
2023-02-16T08:32:20.075Z,15.88
2023-02-16T08:34:47.499Z,15.07
2023-02-16T08:37:14.914Z,14.55
2023-02-16T08:39:43.647Z,14.70
2023-02-16T08:42:14.247Z,14.73
2023-02-16T08:44:42.117Z,13.95
2023-02-16T08:47:11.054Z,14.40
2023-02-16T08:49:39.423Z,13.80
2023-02-16T08:52:06.994Z,13.57
2023-02-16T08:54:34.505Z,12.95
2023-02-16T08:57:03.823Z,13.27
2023-02-16T08:59:31.535Z,13.27
2023-02-16T09:01:59.393Z,13.63
2023-02-16T09:04:28.789Z,12.18
2023-02-16T09:06:56.363Z,12.80
2023-02-16T09:09:23.821Z,11.85
2023-02-16T09:11:51.237Z,11.98
2023-02-16T09:14:19.984Z,12.23
2023-02-16T09:16:48.276Z,12.40
2023-02-16T09:19:16.546Z,14.38
2023-02-16T09:21:45.066Z,13.48
2023-02-16T09:24:12.480Z,13.75
2023-02-16T09:26:42.619Z,12.55
2023-02-16T09:31:39.516Z,14.38
2023-02-16T09:34:08.525Z,14.25
2023-02-16T09:36:36.114Z,14.88
2023-02-16T09:39:03.619Z,16.58
2023-02-16T09:41:38.231Z,14.75
2023-02-16T09:44:10.639Z,15.45
2023-02-16T09:46:39.456Z,15.15
2023-02-16T09:49:07.437Z,15.05
2023-02-16T09:51:36.120Z,15.25
2023-02-16T09:54:09.696Z,14.85
2023-02-16T09:56:38.785Z,13.95
2023-02-16T09:59:11.648Z,15.68
2023-02-16T10:01:42.096Z,15.05
2023-02-16T10:04:23.619Z,15.05
2023-02-16T10:06:58.270Z,14.88
2023-02-16T10:09:27.148Z,15.88
2023-02-16T10:11:57.468Z,14.95
2023-02-16T10:14:30.675Z,14.02
2023-02-16T10:17:03.813Z,14.45
2023-02-16T10:19:34.798Z,14.88
2023-02-16T10:22:04.289Z,14.85
2023-02-16T10:24:32.868Z,15.55
2023-02-16T10:27:03.181Z,15.02
2023-02-16T10:29:30.843Z,14.02
2023-02-16T10:32:05.152Z,14.50
2023-02-16T10:34:40.316Z,13.35
2023-02-16T10:37:19.890Z,12.32
2023-02-16T10:39:48.987Z,9.73
2023-02-16T10:42:19.199Z,13.65
2023-02-16T10:47:33.139Z,12.25
2023-02-16T10:50:00.604Z,13.23
2023-02-16T10:52:29.034Z,13.15
2023-02-16T10:54:56.416Z,12.35
2023-02-16T10:57:26.622Z,12.45
2023-02-16T11:02:24.368Z,12.60
2023-02-16T11:04:53.404Z,12.18
2023-02-16T11:07:22.077Z,11.40
2023-02-16T11:09:52.922Z,12.48
2023-02-16T11:12:26.749Z,12.40
2023-02-16T11:14:55.922Z,11.68
2023-02-16T11:17:23.673Z,11.63
2023-02-16T11:19:53.954Z,11.38
2023-02-16T11:22:30.090Z,12.23
2023-02-16T11:24:59.276Z,11.25
2023-02-16T11:27:26.832Z,11.33
2023-02-16T11:30:22.060Z,11.10
2023-02-16T11:32:49.999Z,12.05
2023-02-16T11:35:18.908Z,11.05
2023-02-16T11:37:46.278Z,10.95
2023-02-16T11:40:20.583Z,10.63
2023-02-16T11:42:48.869Z,10.75
2023-02-16T11:45:24.069Z,10.38
2023-02-16T11:47:53.820Z,10.43
2023-02-16T11:50:25.682Z,10.45
2023-02-16T11:52:53.948Z,9.55
2023-02-16T11:55:24.367Z,9.75
2023-02-16T11:57:51.932Z,9.40
2023-02-16T12:00:21.889Z,8.88
2023-02-16T12:03:06.190Z,8.85
2023-02-16T12:05:39.632Z,9.40
2023-02-16T12:08:42.873Z,9.10
2023-02-16T12:11:16.870Z,8.82
2023-02-16T12:13:46.524Z,8.88
2023-02-16T12:16:21.800Z,8.90
2023-02-16T12:18:57.110Z,8.93
2023-02-16T12:21:30.062Z,9.80
2023-02-16T12:24:01.843Z,8.88
2023-02-16T12:26:39.141Z,8.30
2023-02-16T12:29:20.535Z,7.65
2023-02-16T12:31:55.668Z,8.13
2023-02-16T12:34:25.480Z,8.27
2023-02-16T12:36:59.036Z,8.40
2023-02-16T12:39:31.037Z,8.23
2023-02-16T12:42:11.920Z,7.80
2023-02-16T12:44:42.463Z,8.68
2023-02-16T12:47:13.484Z,8.05
2023-02-16T12:49:44.829Z,8.45
2023-02-16T12:52:19.540Z,8.40
2023-02-16T12:54:48.891Z,7.85
2023-02-16T12:57:17.980Z,7.18
2023-02-16T12:59:47.026Z,8.00
2023-02-16T13:02:16.825Z,8.35
2023-02-16T13:04:46.688Z,7.97
2023-02-16T13:07:18.092Z,7.95
2023-02-16T13:09:50.844Z,8.35
2023-02-16T13:12:27.083Z,7.85
2023-02-16T13:15:07.882Z,8.10
2023-02-16T13:17:36.792Z,8.85
2023-02-16T13:20:05.023Z,7.80
2023-02-16T13:22:55.021Z,8.13
2023-02-16T13:25:37.929Z,10.10
2023-02-16T13:28:12.373Z,11.00
2023-02-16T13:31:19.020Z,10.00
2023-02-16T13:34:04.091Z,10.18
2023-02-16T13:36:50.256Z,10.20
2023-02-16T13:39:31.499Z,10.10
2023-02-16T13:42:26.708Z,9.07
2023-02-16T13:44:55.865Z,9.60
2023-02-16T13:47:26.108Z,8.38
2023-02-16T13:49:57.271Z,8.73
2023-02-16T13:52:30.917Z,9.05
2023-02-16T13:54:59.970Z,8.32
2023-02-16T13:58:05.656Z,9.20
2023-02-16T14:00:35.504Z,8.82
2023-02-16T14:03:04.847Z,8.68
2023-02-16T14:05:36.924Z,8.65
2023-02-16T14:08:21.817Z,7.80
2023-02-16T14:11:08.242Z,7.95
2023-02-16T14:13:45.975Z,8.20
2023-02-16T14:16:25.214Z,8.40
2023-02-16T14:18:56.461Z,8.57
2023-02-16T14:21:29.311Z,7.72
2023-02-16T14:23:56.728Z,7.65
2023-02-16T14:26:25.491Z,8.02
2023-02-16T14:28:59.670Z,7.70
2023-02-16T14:31:27.593Z,8.02
2023-02-16T14:34:00.911Z,8.05
2023-02-16T14:36:29.084Z,7.30
2023-02-16T14:38:58.191Z,7.75
2023-02-16T14:41:28.866Z,7.95
2023-02-16T14:44:10.467Z,7.53
2023-02-16T14:46:44.997Z,8.10
2023-02-16T14:49:33.516Z,7.28
2023-02-16T14:52:35.771Z,7.90
2023-02-16T14:55:33.070Z,7.07
2023-02-16T14:58:03.117Z,7.68
2023-02-16T15:00:31.568Z,7.05
2023-02-16T15:02:59.647Z,7.95
2023-02-16T15:05:29.517Z,7.78
2023-02-16T15:08:02.533Z,7.05
2023-02-16T15:10:30.060Z,7.53
2023-02-16T15:12:57.440Z,7.35
2023-02-16T15:15:29.193Z,7.57
2023-02-16T15:17:56.814Z,6.95
2023-02-16T15:20:25.775Z,7.35
2023-02-16T15:22:53.998Z,7.35
2023-02-16T15:25:26.255Z,7.30
2023-02-16T15:27:58.846Z,7.20
2023-02-16T15:30:28.494Z,7.25
2023-02-16T15:32:57.491Z,7.38
2023-02-16T15:35:27.553Z,7.47
2023-02-16T15:38:07.164Z,7.30
2023-02-16T15:40:35.203Z,7.22
2023-02-16T15:43:09.728Z,7.13
2023-02-16T15:45:38.696Z,7.30
2023-02-16T15:48:23.909Z,7.28
2023-02-16T15:50:51.750Z,6.68
2023-02-16T15:53:23.817Z,6.95
2023-02-16T15:55:51.451Z,6.70
2023-02-16T15:58:18.941Z,7.07
2023-02-16T16:00:48.031Z,6.88
2023-02-16T16:03:16.958Z,6.60
2023-02-16T16:05:45.138Z,6.50
2023-02-16T16:08:13.726Z,6.50
2023-02-16T16:10:42.004Z,7.07
2023-02-16T16:13:13.516Z,6.78
2023-02-16T16:15:42.481Z,6.47
2023-02-16T16:18:37.287Z,7.45
2023-02-16T16:21:05.309Z,6.57
2023-02-16T16:23:33.010Z,6.50
2023-02-16T16:26:00.441Z,6.85
2023-02-16T16:28:34.833Z,6.78
2023-02-16T16:31:09.797Z,6.75
2023-02-16T16:33:53.869Z,6.53
2023-02-16T16:36:21.859Z,8.27
2023-02-16T16:38:49.247Z,7.65
2023-02-16T16:41:25.739Z,7.22
2023-02-16T16:43:54.182Z,7.47
2023-02-16T16:46:24.456Z,6.45
2023-02-16T16:48:54.182Z,7.63
2023-02-16T16:51:34.525Z,7.88
2023-02-16T16:54:03.927Z,7.00
2023-02-16T16:56:31.745Z,8.07
2023-02-16T16:58:59.486Z,7.57
2023-02-16T17:01:28.320Z,7.57
2023-02-16T17:03:57.090Z,8.52
2023-02-16T17:06:25.183Z,7.45
2023-02-16T17:08:52.764Z,7.15
2023-02-16T17:11:24.019Z,8.00
2023-02-16T17:13:51.686Z,7.82
2023-02-16T17:16:21.337Z,8.18
2023-02-16T17:18:48.737Z,8.57
2023-02-16T17:21:17.485Z,7.50
2023-02-16T17:23:52.572Z,7.72
2023-02-16T17:26:20.655Z,7.82
2023-02-16T17:28:48.149Z,7.70
2023-02-16T17:31:15.907Z,8.55
2023-02-16T17:33:43.316Z,7.22
2023-02-16T17:36:13.464Z,8.52
2023-02-16T17:41:17.399Z,8.43
2023-02-16T17:43:44.795Z,8.32
2023-02-16T17:46:13.320Z,8.77
2023-02-16T17:48:40.718Z,8.45
2023-02-16T17:51:11.125Z,8.07
2023-02-16T17:53:38.668Z,7.60
2023-02-16T17:56:07.803Z,8.40
2023-02-16T17:58:35.250Z,7.70
2023-02-16T18:01:03.504Z,8.70
2023-02-16T18:03:31.053Z,7.75
2023-02-16T18:05:59.223Z,7.90
2023-02-16T18:08:26.633Z,7.80
2023-02-16T18:11:01.802Z,8.23
2023-02-16T18:13:30.563Z,8.15
2023-02-16T18:15:58.386Z,7.55
2023-02-16T18:18:25.759Z,8.23
2023-02-16T18:20:53.177Z,8.38
2023-02-16T18:23:20.558Z,8.25
2023-02-16T18:25:47.994Z,9.13
2023-02-16T18:28:18.145Z,8.32
2023-02-16T18:33:15.088Z,8.38
2023-02-16T18:35:42.531Z,8.05
2023-02-16T18:38:09.902Z,7.75
2023-02-16T18:40:37.315Z,7.65
2023-02-16T18:43:04.698Z,9.25
2023-02-16T18:45:32.092Z,8.90
2023-02-16T18:48:00.806Z,8.18
2023-02-16T18:50:28.191Z,9.25
2023-02-16T18:52:55.582Z,8.82
2023-02-16T18:55:22.980Z,9.70
2023-02-16T18:57:50.373Z,10.18
2023-02-16T19:00:20.018Z,10.35
2023-02-16T19:02:47.404Z,9.85
2023-02-16T19:05:16.122Z,9.48
2023-02-16T19:07:43.707Z,9.60
2023-02-16T19:10:12.010Z,9.73
2023-02-16T19:12:39.525Z,9.65
2023-02-16T19:15:07.586Z,9.68
2023-02-16T19:17:34.996Z,9.82
2023-02-16T19:20:02.372Z,9.63
2023-02-16T19:22:33.525Z,9.05
2023-02-16T19:25:00.926Z,9.88
2023-02-16T19:27:28.332Z,10.25
2023-02-16T19:29:55.723Z,10.00
2023-02-16T19:32:23.156Z,10.00
2023-02-16T19:34:50.584Z,9.38
2023-02-16T19:37:17.976Z,9.43
2023-02-16T19:39:46.668Z,9.10
2023-02-16T19:42:14.066Z,9.98
2023-02-16T19:44:41.560Z,9.95
2023-02-16T19:47:09.049Z,9.65
2023-02-16T19:49:36.673Z,9.95
2023-02-16T19:52:04.425Z,9.93
2023-02-16T19:54:32.400Z,10.00
2023-02-16T19:57:01.185Z,9.95
2023-02-16T19:59:28.568Z,9.25
2023-02-16T20:01:56.048Z,9.68
2023-02-16T20:04:23.474Z,9.05
2023-02-16T20:06:54.155Z,9.23
2023-02-16T20:09:21.939Z,10.15
2023-02-16T20:11:49.453Z,9.85
2023-02-16T20:14:18.713Z,10.07
2023-02-16T20:16:46.400Z,9.57
2023-02-16T20:19:14.138Z,10.98
2023-02-16T20:21:44.255Z,10.13
2023-02-16T20:26:40.300Z,9.65
2023-02-16T20:29:08.483Z,9.93
2023-02-16T20:31:38.840Z,9.52
2023-02-16T20:34:06.587Z,9.93
2023-02-16T20:36:34.712Z,9.90
2023-02-16T20:39:02.419Z,9.35
2023-02-16T20:41:30.127Z,9.80
2023-02-16T20:43:57.693Z,9.63
2023-02-16T20:46:26.265Z,10.38
2023-02-16T20:48:56.424Z,10.23
2023-02-16T20:51:23.954Z,10.35
2023-02-16T20:53:51.353Z,9.75
2023-02-16T20:56:21.161Z,10.90
2023-02-16T21:01:17.843Z,10.52
2023-02-16T21:03:45.510Z,9.38
2023-02-16T21:06:14.215Z,11.02
2023-02-16T21:08:41.626Z,10.10
2023-02-16T21:11:09.031Z,10.70
2023-02-16T21:13:36.472Z,10.13
2023-02-16T21:16:04.245Z,10.50
2023-02-16T21:18:31.842Z,10.00
2023-02-16T21:20:59.887Z,10.82
2023-02-16T21:23:28.725Z,10.65
2023-02-16T21:25:58.684Z,10.40
2023-02-16T21:28:26.061Z,10.07
2023-02-16T21:30:58.006Z,10.40
2023-02-16T21:33:25.379Z,10.35
2023-02-16T21:35:52.796Z,10.85
2023-02-16T21:38:20.194Z,10.40
2023-02-16T21:41:06.515Z,10.65
2023-02-16T21:43:33.911Z,11.02
2023-02-16T21:46:01.532Z,10.38
2023-02-16T21:48:46.458Z,10.55
2023-02-16T21:51:14.498Z,10.15
2023-02-16T21:53:41.856Z,11.70
2023-02-16T21:56:17.764Z,11.23
2023-02-16T21:58:45.153Z,11.02
2023-02-16T22:01:12.647Z,11.40
2023-02-16T22:03:40.127Z,10.25
2023-02-16T22:06:08.228Z,10.63
2023-02-16T22:08:37.772Z,10.75
2023-02-16T22:11:06.638Z,11.07
2023-02-16T22:13:35.992Z,10.88
2023-02-16T22:16:10.089Z,11.45
2023-02-16T22:18:37.618Z,12.00
2023-02-16T22:21:05.415Z,11.30
2023-02-16T22:23:32.842Z,10.95
2023-02-16T22:26:00.237Z,10.07
2023-02-16T22:28:27.623Z,11.95
2023-02-16T22:30:56.364Z,10.75
2023-02-16T22:33:23.840Z,10.90
2023-02-16T22:35:51.235Z,9.52
2023-02-16T22:38:18.637Z,10.63
2023-02-16T22:40:46.045Z,10.07
2023-02-16T22:43:13.444Z,10.07
2023-02-16T22:45:40.840Z,9.82
2023-02-16T22:48:09.576Z,9.85
2023-02-16T22:50:36.943Z,9.57
2023-02-16T22:53:04.326Z,9.85
2023-02-16T22:55:31.700Z,9.60
2023-02-16T22:57:59.078Z,9.25
2023-02-16T23:00:26.658Z,9.27
2023-02-16T23:02:54.048Z,8.90
2023-02-16T23:05:22.732Z,8.55
2023-02-16T23:07:50.121Z,9.02
2023-02-16T23:10:17.942Z,10.18
2023-02-16T23:12:45.463Z,8.98
2023-02-16T23:15:12.847Z,8.70
2023-02-16T23:17:40.242Z,10.10
2023-02-16T23:20:09.335Z,9.15
2023-02-16T23:22:38.051Z,9.57
2023-02-16T23:25:23.938Z,8.82
2023-02-16T23:27:52.444Z,9.07
2023-02-16T23:30:20.209Z,10.00
2023-02-16T23:32:47.665Z,8.80
2023-02-16T23:35:15.044Z,8.82
2023-02-16T23:37:44.070Z,8.50
2023-02-16T23:40:12.063Z,8.93
2023-02-16T23:42:39.562Z,8.15
2023-02-16T23:45:07.389Z,8.68
2023-02-16T23:47:34.782Z,8.68
2023-02-16T23:50:02.166Z,8.57
2023-02-16T23:52:29.545Z,8.23
2023-02-16T23:54:58.240Z,8.18
2023-02-16T23:57:25.651Z,8.43
2023-02-16T23:59:53.040Z,7.50
